sensor_id;sensor_type;location;lat;lon;timestamp;P1;durP1;ratioP1;P2;durP2;ratioP2
22388;SDS011;11362;48.102;11.620;2024-02-26T00:00:32;4.27;;;1.70;;
22388;SDS011;11362;48.102;11.620;2024-02-26T00:02:57;3.83;;;1.43;;
22388;SDS011;11362;48.102;11.620;2024-02-26T00:05:22;2.80;;;1.40;;
22388;SDS011;11362;48.102;11.620;2024-02-26T00:07:47;2.83;;;1.37;;
22388;SDS011;11362;48.102;11.620;2024-02-26T00:10:13;1.33;;;1.30;;
22388;SDS011;11362;48.102;11.620;2024-02-26T00:12:39;4.50;;;1.80;;
22388;SDS011;11362;48.102;11.620;2024-02-26T00:15:07;2.87;;;1.60;;
22388;SDS011;11362;48.102;11.620;2024-02-26T00:17:34;2.10;;;1.83;;
22388;SDS011;11362;48.102;11.620;2024-02-26T00:19:59;3.23;;;1.43;;
22388;SDS011;11362;48.102;11.620;2024-02-26T00:22:25;4.63;;;1.50;;
22388;SDS011;11362;48.102;11.620;2024-02-26T00:24:50;3.50;;;1.93;;
22388;SDS011;11362;48.102;11.620;2024-02-26T00:27:15;1.63;;;1.43;;
22388;SDS011;11362;48.102;11.620;2024-02-26T00:29:40;2.33;;;1.60;;
22388;SDS011;11362;48.102;11.620;2024-02-26T00:32:06;1.40;;;1.20;;
22388;SDS011;11362;48.102;11.620;2024-02-26T00:34:31;2.10;;;1.50;;
22388;SDS011;11362;48.102;11.620;2024-02-26T00:36:57;1.80;;;1.60;;
22388;SDS011;11362;48.102;11.620;2024-02-26T00:39:22;1.97;;;1.50;;
22388;SDS011;11362;48.102;11.620;2024-02-26T00:41:47;2.30;;;1.63;;
22388;SDS011;11362;48.102;11.620;2024-02-26T00:44:12;2.40;;;1.50;;
22388;SDS011;11362;48.102;11.620;2024-02-26T00:46:38;2.47;;;1.10;;
22388;SDS011;11362;48.102;11.620;2024-02-26T00:49:03;1.73;;;1.33;;
22388;SDS011;11362;48.102;11.620;2024-02-26T00:51:28;2.20;;;1.30;;
22388;SDS011;11362;48.102;11.620;2024-02-26T00:53:54;1.93;;;1.27;;
22388;SDS011;11362;48.102;11.620;2024-02-26T00:56:20;2.50;;;1.37;;
22388;SDS011;11362;48.102;11.620;2024-02-26T00:58:45;4.83;;;1.50;;
22388;SDS011;11362;48.102;11.620;2024-02-26T01:01:10;5.07;;;1.20;;
22388;SDS011;11362;48.102;11.620;2024-02-26T01:03:35;2.77;;;1.20;;
22388;SDS011;11362;48.102;11.620;2024-02-26T01:06:01;2.23;;;1.17;;
22388;SDS011;11362;48.102;11.620;2024-02-26T01:08:26;1.53;;;1.17;;
22388;SDS011;11362;48.102;11.620;2024-02-26T01:10:51;1.23;;;1.13;;
22388;SDS011;11362;48.102;11.620;2024-02-26T01:13:17;1.77;;;1.00;;
22388;SDS011;11362;48.102;11.620;2024-02-26T01:15:42;2.23;;;1.10;;
22388;SDS011;11362;48.102;11.620;2024-02-26T01:18:07;1.40;;;1.30;;
22388;SDS011;11362;48.102;11.620;2024-02-26T01:20:32;1.13;;;1.13;;
22388;SDS011;11362;48.102;11.620;2024-02-26T01:22:58;1.27;;;1.20;;
22388;SDS011;11362;48.102;11.620;2024-02-26T01:25:23;1.20;;;0.90;;
22388;SDS011;11362;48.102;11.620;2024-02-26T01:27:48;0.90;;;0.87;;
22388;SDS011;11362;48.102;11.620;2024-02-26T01:30:14;2.13;;;1.00;;
22388;SDS011;11362;48.102;11.620;2024-02-26T01:32:39;1.80;;;1.10;;
22388;SDS011;11362;48.102;11.620;2024-02-26T01:35:05;1.00;;;0.80;;
22388;SDS011;11362;48.102;11.620;2024-02-26T01:37:30;1.63;;;0.93;;
22388;SDS011;11362;48.102;11.620;2024-02-26T01:39:55;2.30;;;1.23;;
22388;SDS011;11362;48.102;11.620;2024-02-26T01:42:21;1.20;;;1.10;;
22388;SDS011;11362;48.102;11.620;2024-02-26T01:44:46;5.80;;;1.03;;
22388;SDS011;11362;48.102;11.620;2024-02-26T01:47:11;2.00;;;1.50;;
22388;SDS011;11362;48.102;11.620;2024-02-26T01:49:38;1.37;;;1.10;;
22388;SDS011;11362;48.102;11.620;2024-02-26T01:52:05;1.60;;;1.30;;
22388;SDS011;11362;48.102;11.620;2024-02-26T01:54:34;2.10;;;1.30;;
22388;SDS011;11362;48.102;11.620;2024-02-26T01:57:00;1.40;;;1.30;;
22388;SDS011;11362;48.102;11.620;2024-02-26T01:59:26;1.73;;;1.37;;
22388;SDS011;11362;48.102;11.620;2024-02-26T02:01:54;1.77;;;1.27;;
22388;SDS011;11362;48.102;11.620;2024-02-26T02:04:23;1.53;;;1.10;;
22388;SDS011;11362;48.102;11.620;2024-02-26T02:06:49;4.17;;;1.30;;
22388;SDS011;11362;48.102;11.620;2024-02-26T02:09:15;2.57;;;1.47;;
22388;SDS011;11362;48.102;11.620;2024-02-26T02:11:40;1.30;;;1.30;;
22388;SDS011;11362;48.102;11.620;2024-02-26T02:14:06;4.07;;;1.60;;
22388;SDS011;11362;48.102;11.620;2024-02-26T02:16:31;2.20;;;1.40;;
22388;SDS011;11362;48.102;11.620;2024-02-26T02:18:58;1.53;;;1.10;;
22388;SDS011;11362;48.102;11.620;2024-02-26T02:21:23;1.50;;;1.40;;
22388;SDS011;11362;48.102;11.620;2024-02-26T02:23:48;1.67;;;1.20;;
22388;SDS011;11362;48.102;11.620;2024-02-26T02:26:14;5.93;;;1.43;;
22388;SDS011;11362;48.102;11.620;2024-02-26T02:28:40;6.33;;;1.63;;
22388;SDS011;11362;48.102;11.620;2024-02-26T02:31:05;2.03;;;1.37;;
22388;SDS011;11362;48.102;11.620;2024-02-26T02:33:31;3.13;;;1.00;;
22388;SDS011;11362;48.102;11.620;2024-02-26T02:35:57;1.53;;;1.10;;
22388;SDS011;11362;48.102;11.620;2024-02-26T02:38:23;2.90;;;1.60;;
22388;SDS011;11362;48.102;11.620;2024-02-26T02:40:48;1.90;;;1.27;;
22388;SDS011;11362;48.102;11.620;2024-02-26T02:43:13;1.57;;;1.20;;
22388;SDS011;11362;48.102;11.620;2024-02-26T02:45:39;1.47;;;1.37;;
22388;SDS011;11362;48.102;11.620;2024-02-26T02:48:04;2.77;;;1.20;;
22388;SDS011;11362;48.102;11.620;2024-02-26T02:50:29;4.53;;;1.50;;
22388;SDS011;11362;48.102;11.620;2024-02-26T02:52:55;3.50;;;1.20;;
22388;SDS011;11362;48.102;11.620;2024-02-26T02:55:20;4.20;;;1.57;;
22388;SDS011;11362;48.102;11.620;2024-02-26T02:57:45;1.30;;;1.20;;
22388;SDS011;11362;48.102;11.620;2024-02-26T03:00:11;1.87;;;1.10;;
22388;SDS011;11362;48.102;11.620;2024-02-26T03:02:36;2.70;;;1.17;;
22388;SDS011;11362;48.102;11.620;2024-02-26T03:05:02;3.80;;;1.17;;
22388;SDS011;11362;48.102;11.620;2024-02-26T03:07:28;3.33;;;1.13;;
22388;SDS011;11362;48.102;11.620;2024-02-26T03:09:54;2.07;;;1.27;;
22388;SDS011;11362;48.102;11.620;2024-02-26T03:12:19;1.37;;;1.10;;
22388;SDS011;11362;48.102;11.620;2024-02-26T03:14:45;1.93;;;1.40;;
22388;SDS011;11362;48.102;11.620;2024-02-26T03:17:10;2.53;;;0.93;;
22388;SDS011;11362;48.102;11.620;2024-02-26T03:19:35;2.43;;;1.17;;
22388;SDS011;11362;48.102;11.620;2024-02-26T03:22:00;1.30;;;1.10;;
22388;SDS011;11362;48.102;11.620;2024-02-26T03:24:26;1.27;;;1.10;;
22388;SDS011;11362;48.102;11.620;2024-02-26T03:26:51;1.40;;;1.30;;
22388;SDS011;11362;48.102;11.620;2024-02-26T03:29:16;1.37;;;0.97;;
22388;SDS011;11362;48.102;11.620;2024-02-26T03:31:42;1.90;;;1.20;;
22388;SDS011;11362;48.102;11.620;2024-02-26T03:34:07;2.53;;;1.17;;
22388;SDS011;11362;48.102;11.620;2024-02-26T03:36:32;1.17;;;1.00;;
22388;SDS011;11362;48.102;11.620;2024-02-26T03:38:58;1.00;;;1.00;;
22388;SDS011;11362;48.102;11.620;2024-02-26T03:41:23;1.53;;;1.23;;
22388;SDS011;11362;48.102;11.620;2024-02-26T03:43:49;1.70;;;1.13;;
22388;SDS011;11362;48.102;11.620;2024-02-26T03:46:14;1.43;;;0.90;;
22388;SDS011;11362;48.102;11.620;2024-02-26T03:48:40;3.13;;;1.00;;
22388;SDS011;11362;48.102;11.620;2024-02-26T03:51:06;1.43;;;1.00;;
22388;SDS011;11362;48.102;11.620;2024-02-26T03:53:33;1.53;;;1.03;;
22388;SDS011;11362;48.102;11.620;2024-02-26T03:56:02;1.83;;;0.90;;
22388;SDS011;11362;48.102;11.620;2024-02-26T03:58:28;1.63;;;1.03;;
22388;SDS011;11362;48.102;11.620;2024-02-26T04:00:53;1.50;;;0.80;;
22388;SDS011;11362;48.102;11.620;2024-02-26T04:03:19;1.70;;;1.20;;
22388;SDS011;11362;48.102;11.620;2024-02-26T04:05:44;1.73;;;0.97;;
22388;SDS011;11362;48.102;11.620;2024-02-26T04:08:09;2.03;;;0.80;;
22388;SDS011;11362;48.102;11.620;2024-02-26T04:10:34;1.53;;;1.00;;
22388;SDS011;11362;48.102;11.620;2024-02-26T04:13:00;0.90;;;0.90;;
22388;SDS011;11362;48.102;11.620;2024-02-26T04:15:25;0.60;;;0.60;;
22388;SDS011;11362;48.102;11.620;2024-02-26T04:17:51;1.00;;;0.90;;
22388;SDS011;11362;48.102;11.620;2024-02-26T04:20:16;1.07;;;0.97;;
22388;SDS011;11362;48.102;11.620;2024-02-26T04:22:41;1.27;;;1.03;;
22388;SDS011;11362;48.102;11.620;2024-02-26T04:25:07;0.77;;;0.77;;
22388;SDS011;11362;48.102;11.620;2024-02-26T04:27:32;0.67;;;0.67;;
22388;SDS011;11362;48.102;11.620;2024-02-26T04:29:58;0.90;;;0.90;;
22388;SDS011;11362;48.102;11.620;2024-02-26T04:32:23;1.10;;;0.80;;
22388;SDS011;11362;48.102;11.620;2024-02-26T04:34:48;0.70;;;0.70;;
22388;SDS011;11362;48.102;11.620;2024-02-26T04:37:13;2.20;;;1.10;;
22388;SDS011;11362;48.102;11.620;2024-02-26T04:39:39;1.30;;;1.20;;
22388;SDS011;11362;48.102;11.620;2024-02-26T04:42:04;2.07;;;0.80;;
22388;SDS011;11362;48.102;11.620;2024-02-26T04:44:29;0.90;;;0.90;;
22388;SDS011;11362;48.102;11.620;2024-02-26T04:46:55;0.80;;;0.80;;
22388;SDS011;11362;48.102;11.620;2024-02-26T04:49:20;1.93;;;0.80;;
22388;SDS011;11362;48.102;11.620;2024-02-26T04:51:45;0.70;;;0.70;;
22388;SDS011;11362;48.102;11.620;2024-02-26T04:54:11;0.70;;;0.70;;
22388;SDS011;11362;48.102;11.620;2024-02-26T04:56:36;0.90;;;0.90;;
22388;SDS011;11362;48.102;11.620;2024-02-26T04:59:01;0.80;;;0.80;;
22388;SDS011;11362;48.102;11.620;2024-02-26T05:01:26;3.17;;;0.93;;
22388;SDS011;11362;48.102;11.620;2024-02-26T05:03:52;1.00;;;0.90;;
22388;SDS011;11362;48.102;11.620;2024-02-26T05:06:17;1.37;;;1.10;;
22388;SDS011;11362;48.102;11.620;2024-02-26T05:08:43;1.20;;;0.90;;
22388;SDS011;11362;48.102;11.620;2024-02-26T05:11:08;0.80;;;0.80;;
22388;SDS011;11362;48.102;11.620;2024-02-26T05:13:33;1.27;;;0.90;;
22388;SDS011;11362;48.102;11.620;2024-02-26T05:15:59;0.93;;;0.93;;
22388;SDS011;11362;48.102;11.620;2024-02-26T05:18:24;1.20;;;0.90;;
22388;SDS011;11362;48.102;11.620;2024-02-26T05:20:49;0.50;;;0.50;;
22388;SDS011;11362;48.102;11.620;2024-02-26T05:23:15;1.43;;;1.00;;
22388;SDS011;11362;48.102;11.620;2024-02-26T05:25:40;2.00;;;1.00;;
22388;SDS011;11362;48.102;11.620;2024-02-26T05:28:05;0.87;;;0.87;;
22388;SDS011;11362;48.102;11.620;2024-02-26T05:30:31;1.20;;;1.10;;
22388;SDS011;11362;48.102;11.620;2024-02-26T05:32:56;2.93;;;0.90;;
22388;SDS011;11362;48.102;11.620;2024-02-26T05:35:21;0.70;;;0.70;;
22388;SDS011;11362;48.102;11.620;2024-02-26T05:37:47;0.63;;;0.63;;
22388;SDS011;11362;48.102;11.620;2024-02-26T05:40:12;2.30;;;0.80;;
22388;SDS011;11362;48.102;11.620;2024-02-26T05:42:37;0.80;;;0.80;;
22388;SDS011;11362;48.102;11.620;2024-02-26T05:45:03;1.07;;;1.07;;
22388;SDS011;11362;48.102;11.620;2024-02-26T05:47:29;1.83;;;0.97;;
22388;SDS011;11362;48.102;11.620;2024-02-26T05:49:54;0.60;;;0.60;;
22388;SDS011;11362;48.102;11.620;2024-02-26T05:52:19;2.93;;;0.93;;
22388;SDS011;11362;48.102;11.620;2024-02-26T05:54:45;0.80;;;0.80;;
22388;SDS011;11362;48.102;11.620;2024-02-26T05:57:10;0.77;;;0.77;;
22388;SDS011;11362;48.102;11.620;2024-02-26T05:59:35;0.77;;;0.77;;
22388;SDS011;11362;48.102;11.620;2024-02-26T06:02:00;0.70;;;0.70;;
22388;SDS011;11362;48.102;11.620;2024-02-26T06:04:26;0.80;;;0.80;;
22388;SDS011;11362;48.102;11.620;2024-02-26T06:06:51;1.20;;;1.00;;
22388;SDS011;11362;48.102;11.620;2024-02-26T06:09:16;0.87;;;0.87;;
22388;SDS011;11362;48.102;11.620;2024-02-26T06:11:42;0.97;;;0.60;;
22388;SDS011;11362;48.102;11.620;2024-02-26T06:14:07;1.07;;;0.97;;
22388;SDS011;11362;48.102;11.620;2024-02-26T06:16:32;1.10;;;1.00;;
22388;SDS011;11362;48.102;11.620;2024-02-26T06:18:58;0.70;;;0.60;;
22388;SDS011;11362;48.102;11.620;2024-02-26T06:21:24;0.60;;;0.60;;
22388;SDS011;11362;48.102;11.620;2024-02-26T06:23:49;1.27;;;0.80;;
22388;SDS011;11362;48.102;11.620;2024-02-26T06:26:14;1.20;;;0.90;;
22388;SDS011;11362;48.102;11.620;2024-02-26T06:28:39;0.70;;;0.70;;
22388;SDS011;11362;48.102;11.620;2024-02-26T06:31:05;0.70;;;0.70;;
22388;SDS011;11362;48.102;11.620;2024-02-26T06:33:30;3.13;;;1.23;;
22388;SDS011;11362;48.102;11.620;2024-02-26T06:35:55;2.43;;;1.00;;
22388;SDS011;11362;48.102;11.620;2024-02-26T06:38:21;1.10;;;1.00;;
22388;SDS011;11362;48.102;11.620;2024-02-26T06:40:46;1.00;;;0.90;;
22388;SDS011;11362;48.102;11.620;2024-02-26T06:43:11;1.07;;;0.80;;
22388;SDS011;11362;48.102;11.620;2024-02-26T06:45:36;1.13;;;0.80;;
22388;SDS011;11362;48.102;11.620;2024-02-26T06:48:02;1.00;;;0.77;;
22388;SDS011;11362;48.102;11.620;2024-02-26T06:50:27;0.93;;;0.90;;
22388;SDS011;11362;48.102;11.620;2024-02-26T06:52:52;4.07;;;1.30;;
22388;SDS011;11362;48.102;11.620;2024-02-26T06:55:18;1.73;;;0.80;;
22388;SDS011;11362;48.102;11.620;2024-02-26T06:57:43;7.90;;;1.60;;
22388;SDS011;11362;48.102;11.620;2024-02-26T07:00:09;7.03;;;2.53;;
22388;SDS011;11362;48.102;11.620;2024-02-26T07:02:35;8.43;;;2.27;;
22388;SDS011;11362;48.102;11.620;2024-02-26T07:05:00;17.37;;;2.23;;
22388;SDS011;11362;48.102;11.620;2024-02-26T07:07:25;15.63;;;2.60;;
22388;SDS011;11362;48.102;11.620;2024-02-26T07:09:50;9.83;;;2.57;;
22388;SDS011;11362;48.102;11.620;2024-02-26T07:12:16;9.87;;;2.73;;
22388;SDS011;11362;48.102;11.620;2024-02-26T07:14:41;8.37;;;2.23;;
22388;SDS011;11362;48.102;11.620;2024-02-26T07:17:07;10.27;;;2.40;;
22388;SDS011;11362;48.102;11.620;2024-02-26T07:19:32;12.13;;;2.40;;
22388;SDS011;11362;48.102;11.620;2024-02-26T07:21:58;13.03;;;2.77;;
22388;SDS011;11362;48.102;11.620;2024-02-26T07:24:23;16.53;;;2.50;;
22388;SDS011;11362;48.102;11.620;2024-02-26T07:26:48;7.83;;;2.47;;
22388;SDS011;11362;48.102;11.620;2024-02-26T07:29:13;7.23;;;2.30;;
22388;SDS011;11362;48.102;11.620;2024-02-26T07:31:39;7.07;;;2.50;;
22388;SDS011;11362;48.102;11.620;2024-02-26T07:34:04;13.37;;;3.10;;
22388;SDS011;11362;48.102;11.620;2024-02-26T07:36:29;11.43;;;2.73;;
22388;SDS011;11362;48.102;11.620;2024-02-26T07:38:55;13.30;;;2.57;;
22388;SDS011;11362;48.102;11.620;2024-02-26T07:41:20;7.20;;;2.27;;
22388;SDS011;11362;48.102;11.620;2024-02-26T07:43:45;17.67;;;3.13;;
22388;SDS011;11362;48.102;11.620;2024-02-26T07:46:11;14.57;;;3.03;;
22388;SDS011;11362;48.102;11.620;2024-02-26T07:48:37;10.70;;;3.10;;
22388;SDS011;11362;48.102;11.620;2024-02-26T07:51:03;8.43;;;2.73;;
22388;SDS011;11362;48.102;11.620;2024-02-26T07:53:29;17.47;;;3.00;;
22388;SDS011;11362;48.102;11.620;2024-02-26T07:55:54;23.13;;;3.87;;
22388;SDS011;11362;48.102;11.620;2024-02-26T07:58:19;15.33;;;4.00;;
22388;SDS011;11362;48.102;11.620;2024-02-26T08:00:44;14.90;;;3.30;;
22388;SDS011;11362;48.102;11.620;2024-02-26T08:03:10;8.70;;;3.03;;
22388;SDS011;11362;48.102;11.620;2024-02-26T08:05:35;9.23;;;2.83;;
22388;SDS011;11362;48.102;11.620;2024-02-26T08:08:00;9.20;;;3.23;;
22388;SDS011;11362;48.102;11.620;2024-02-26T08:10:26;6.83;;;3.30;;
22388;SDS011;11362;48.102;11.620;2024-02-26T08:12:51;9.60;;;3.30;;
22388;SDS011;11362;48.102;11.620;2024-02-26T08:15:16;7.60;;;3.17;;
22388;SDS011;11362;48.102;11.620;2024-02-26T08:17:41;6.57;;;2.87;;
22388;SDS011;11362;48.102;11.620;2024-02-26T08:20:07;11.07;;;3.30;;
22388;SDS011;11362;48.102;11.620;2024-02-26T08:22:32;14.00;;;4.07;;
22388;SDS011;11362;48.102;11.620;2024-02-26T08:24:58;4.60;;;2.67;;
22388;SDS011;11362;48.102;11.620;2024-02-26T08:27:23;6.83;;;2.67;;
22388;SDS011;11362;48.102;11.620;2024-02-26T08:29:48;8.20;;;2.60;;
22388;SDS011;11362;48.102;11.620;2024-02-26T08:32:13;11.63;;;2.93;;
22388;SDS011;11362;48.102;11.620;2024-02-26T08:34:39;5.57;;;2.70;;
22388;SDS011;11362;48.102;11.620;2024-02-26T08:37:05;7.77;;;2.53;;
22388;SDS011;11362;48.102;11.620;2024-02-26T08:39:31;5.57;;;2.23;;
22388;SDS011;11362;48.102;11.620;2024-02-26T08:41:56;5.50;;;2.63;;
22388;SDS011;11362;48.102;11.620;2024-02-26T08:44:21;11.20;;;3.20;;
22388;SDS011;11362;48.102;11.620;2024-02-26T08:46:46;9.33;;;2.83;;
22388;SDS011;11362;48.102;11.620;2024-02-26T08:49:12;7.27;;;2.30;;
22388;SDS011;11362;48.102;11.620;2024-02-26T08:51:43;9.30;;;2.90;;
22388;SDS011;11362;48.102;11.620;2024-02-26T08:54:08;6.07;;;2.17;;
22388;SDS011;11362;48.102;11.620;2024-02-26T08:56:34;5.80;;;2.23;;
22388;SDS011;11362;48.102;11.620;2024-02-26T08:58:59;6.10;;;2.23;;
22388;SDS011;11362;48.102;11.620;2024-02-26T09:01:24;9.27;;;1.93;;
22388;SDS011;11362;48.102;11.620;2024-02-26T09:03:50;5.87;;;2.43;;
22388;SDS011;11362;48.102;11.620;2024-02-26T09:06:15;4.07;;;2.23;;
22388;SDS011;11362;48.102;11.620;2024-02-26T09:08:40;8.60;;;2.60;;
22388;SDS011;11362;48.102;11.620;2024-02-26T09:11:05;5.93;;;2.40;;
22388;SDS011;11362;48.102;11.620;2024-02-26T09:13:31;5.60;;;2.10;;
22388;SDS011;11362;48.102;11.620;2024-02-26T09:15:56;4.03;;;1.90;;
22388;SDS011;11362;48.102;11.620;2024-02-26T09:18:21;4.37;;;2.33;;
22388;SDS011;11362;48.102;11.620;2024-02-26T09:20:47;6.70;;;2.10;;
22388;SDS011;11362;48.102;11.620;2024-02-26T09:23:12;3.77;;;1.80;;
22388;SDS011;11362;48.102;11.620;2024-02-26T09:25:38;5.00;;;1.93;;
22388;SDS011;11362;48.102;11.620;2024-02-26T09:28:03;2.47;;;2.17;;
22388;SDS011;11362;48.102;11.620;2024-02-26T09:30:29;3.40;;;1.97;;
22388;SDS011;11362;48.102;11.620;2024-02-26T09:32:54;3.00;;;1.57;;
22388;SDS011;11362;48.102;11.620;2024-02-26T09:35:19;2.03;;;1.83;;
22388;SDS011;11362;48.102;11.620;2024-02-26T09:37:44;2.63;;;1.77;;
22388;SDS011;11362;48.102;11.620;2024-02-26T09:40:10;3.53;;;2.10;;
22388;SDS011;11362;48.102;11.620;2024-02-26T09:42:36;4.77;;;2.37;;
22388;SDS011;11362;48.102;11.620;2024-02-26T09:45:02;5.70;;;1.90;;
22388;SDS011;11362;48.102;11.620;2024-02-26T09:47:31;2.17;;;1.37;;
22388;SDS011;11362;48.102;11.620;2024-02-26T09:49:56;4.93;;;1.60;;
22388;SDS011;11362;48.102;11.620;2024-02-26T09:52:24;2.27;;;1.80;;
22388;SDS011;11362;48.102;11.620;2024-02-26T09:54:50;3.57;;;1.83;;
22388;SDS011;11362;48.102;11.620;2024-02-26T09:57:16;1.60;;;1.50;;
22388;SDS011;11362;48.102;11.620;2024-02-26T09:59:41;4.67;;;2.30;;
22388;SDS011;11362;48.102;11.620;2024-02-26T10:02:08;3.00;;;1.50;;
22388;SDS011;11362;48.102;11.620;2024-02-26T10:04:36;5.57;;;1.60;;
22388;SDS011;11362;48.102;11.620;2024-02-26T10:07:03;2.40;;;1.60;;
22388;SDS011;11362;48.102;11.620;2024-02-26T10:09:29;3.57;;;2.00;;
22388;SDS011;11362;48.102;11.620;2024-02-26T10:11:56;2.63;;;2.00;;
22388;SDS011;11362;48.102;11.620;2024-02-26T10:14:22;4.23;;;1.63;;
22388;SDS011;11362;48.102;11.620;2024-02-26T10:16:47;2.07;;;1.93;;
22388;SDS011;11362;48.102;11.620;2024-02-26T10:19:24;4.40;;;2.00;;
22388;SDS011;11362;48.102;11.620;2024-02-26T10:21:56;6.23;;;1.60;;
22388;SDS011;11362;48.102;11.620;2024-02-26T10:24:22;8.63;;;1.50;;
22388;SDS011;11362;48.102;11.620;2024-02-26T10:26:47;3.53;;;1.63;;
22388;SDS011;11362;48.102;11.620;2024-02-26T10:29:13;3.73;;;1.83;;
22388;SDS011;11362;48.102;11.620;2024-02-26T10:31:41;2.87;;;1.30;;
22388;SDS011;11362;48.102;11.620;2024-02-26T10:34:07;2.27;;;1.70;;
22388;SDS011;11362;48.102;11.620;2024-02-26T10:36:33;5.87;;;1.60;;
22388;SDS011;11362;48.102;11.620;2024-02-26T10:39:01;1.60;;;1.50;;
22388;SDS011;11362;48.102;11.620;2024-02-26T10:41:27;3.10;;;1.37;;
22388;SDS011;11362;48.102;11.620;2024-02-26T10:43:52;4.77;;;1.70;;
22388;SDS011;11362;48.102;11.620;2024-02-26T10:46:19;2.27;;;1.40;;
22388;SDS011;11362;48.102;11.620;2024-02-26T10:48:49;3.33;;;1.00;;
22388;SDS011;11362;48.102;11.620;2024-02-26T10:51:15;2.17;;;1.17;;
22388;SDS011;11362;48.102;11.620;2024-02-26T10:53:41;1.37;;;1.00;;
22388;SDS011;11362;48.102;11.620;2024-02-26T10:56:10;3.23;;;1.43;;
22388;SDS011;11362;48.102;11.620;2024-02-26T10:58:36;1.73;;;1.33;;
22388;SDS011;11362;48.102;11.620;2024-02-26T11:01:02;3.20;;;1.90;;
22388;SDS011;11362;48.102;11.620;2024-02-26T11:03:29;1.67;;;1.20;;
22388;SDS011;11362;48.102;11.620;2024-02-26T11:05:56;3.03;;;1.23;;
22388;SDS011;11362;48.102;11.620;2024-02-26T11:08:23;1.20;;;1.20;;
22388;SDS011;11362;48.102;11.620;2024-02-26T11:10:50;2.60;;;1.17;;
22388;SDS011;11362;48.102;11.620;2024-02-26T11:13:18;1.53;;;1.23;;
22388;SDS011;11362;48.102;11.620;2024-02-26T11:15:47;1.20;;;1.00;;
22388;SDS011;11362;48.102;11.620;2024-02-26T11:18:16;1.30;;;1.20;;
22388;SDS011;11362;48.102;11.620;2024-02-26T11:20:44;2.33;;;1.20;;
22388;SDS011;11362;48.102;11.620;2024-02-26T11:23:10;1.97;;;1.10;;
22388;SDS011;11362;48.102;11.620;2024-02-26T11:25:36;3.50;;;0.87;;
22388;SDS011;11362;48.102;11.620;2024-02-26T11:28:03;1.10;;;1.00;;
22388;SDS011;11362;48.102;11.620;2024-02-26T11:30:31;1.17;;;1.07;;
22388;SDS011;11362;48.102;11.620;2024-02-26T11:33:00;3.50;;;0.77;;
22388;SDS011;11362;48.102;11.620;2024-02-26T11:35:25;1.53;;;1.03;;
22388;SDS011;11362;48.102;11.620;2024-02-26T11:37:51;1.43;;;1.10;;
22388;SDS011;11362;48.102;11.620;2024-02-26T11:40:18;1.20;;;1.10;;
22388;SDS011;11362;48.102;11.620;2024-02-26T11:42:44;1.03;;;1.00;;
22388;SDS011;11362;48.102;11.620;2024-02-26T11:48:03;0.97;;;0.97;;
22388;SDS011;11362;48.102;11.620;2024-02-26T11:50:35;1.13;;;0.73;;
22388;SDS011;11362;48.102;11.620;2024-02-26T11:58:43;1.10;;;1.00;;
22388;SDS011;11362;48.102;11.620;2024-02-26T12:04:05;2.07;;;0.90;;
22388;SDS011;11362;48.102;11.620;2024-02-26T12:06:39;1.87;;;0.80;;
22388;SDS011;11362;48.102;11.620;2024-02-26T12:09:05;1.07;;;0.90;;
22388;SDS011;11362;48.102;11.620;2024-02-26T12:11:32;2.50;;;0.73;;
22388;SDS011;11362;48.102;11.620;2024-02-26T12:13:57;2.77;;;1.20;;
22388;SDS011;11362;48.102;11.620;2024-02-26T12:16:38;0.83;;;0.83;;
22388;SDS011;11362;48.102;11.620;2024-02-26T12:19:05;2.47;;;1.13;;
22388;SDS011;11362;48.102;11.620;2024-02-26T12:21:32;1.20;;;0.93;;
22388;SDS011;11362;48.102;11.620;2024-02-26T12:24:06;11.00;;;1.00;;
22388;SDS011;11362;48.102;11.620;2024-02-26T12:26:34;1.30;;;0.90;;
22388;SDS011;11362;48.102;11.620;2024-02-26T12:29:00;2.20;;;0.90;;
22388;SDS011;11362;48.102;11.620;2024-02-26T12:31:26;4.37;;;1.40;;
22388;SDS011;11362;48.102;11.620;2024-02-26T12:33:51;5.97;;;2.03;;
22388;SDS011;11362;48.102;11.620;2024-02-26T12:36:17;5.83;;;1.70;;
22388;SDS011;11362;48.102;11.620;2024-02-26T12:38:42;2.33;;;1.03;;
22388;SDS011;11362;48.102;11.620;2024-02-26T12:41:07;9.30;;;1.50;;
22388;SDS011;11362;48.102;11.620;2024-02-26T12:43:33;3.40;;;1.40;;
22388;SDS011;11362;48.102;11.620;2024-02-26T12:45:58;4.20;;;1.43;;
22388;SDS011;11362;48.102;11.620;2024-02-26T12:48:27;13.80;;;1.87;;
22388;SDS011;11362;48.102;11.620;2024-02-26T12:50:53;11.50;;;1.80;;
22388;SDS011;11362;48.102;11.620;2024-02-26T12:53:19;6.00;;;1.80;;
22388;SDS011;11362;48.102;11.620;2024-02-26T12:55:44;7.03;;;2.30;;
22388;SDS011;11362;48.102;11.620;2024-02-26T12:58:10;3.00;;;1.67;;
22388;SDS011;11362;48.102;11.620;2024-02-26T13:00:37;3.37;;;1.43;;
22388;SDS011;11362;48.102;11.620;2024-02-26T13:03:03;7.30;;;1.50;;
22388;SDS011;11362;48.102;11.620;2024-02-26T13:05:29;6.00;;;1.60;;
22388;SDS011;11362;48.102;11.620;2024-02-26T13:07:55;4.37;;;1.47;;
22388;SDS011;11362;48.102;11.620;2024-02-26T13:10:21;4.20;;;1.60;;
22388;SDS011;11362;48.102;11.620;2024-02-26T13:12:47;6.33;;;1.40;;
22388;SDS011;11362;48.102;11.620;2024-02-26T13:15:14;4.93;;;1.70;;
22388;SDS011;11362;48.102;11.620;2024-02-26T13:17:41;4.60;;;1.50;;
22388;SDS011;11362;48.102;11.620;2024-02-26T13:20:07;5.30;;;1.63;;
22388;SDS011;11362;48.102;11.620;2024-02-26T13:22:33;3.40;;;1.90;;
22388;SDS011;11362;48.102;11.620;2024-02-26T13:24:59;12.50;;;1.50;;
22388;SDS011;11362;48.102;11.620;2024-02-26T13:27:24;7.23;;;1.70;;
22388;SDS011;11362;48.102;11.620;2024-02-26T13:30:03;6.07;;;1.63;;
22388;SDS011;11362;48.102;11.620;2024-02-26T13:32:35;3.77;;;1.40;;
22388;SDS011;11362;48.102;11.620;2024-02-26T13:35:08;5.53;;;1.83;;
22388;SDS011;11362;48.102;11.620;2024-02-26T13:37:36;6.73;;;1.53;;
22388;SDS011;11362;48.102;11.620;2024-02-26T13:40:05;3.53;;;1.50;;
22388;SDS011;11362;48.102;11.620;2024-02-26T13:42:32;4.60;;;1.23;;
22388;SDS011;11362;48.102;11.620;2024-02-26T13:44:57;3.23;;;1.20;;
22388;SDS011;11362;48.102;11.620;2024-02-26T13:47:22;4.17;;;1.50;;
22388;SDS011;11362;48.102;11.620;2024-02-26T13:49:48;2.53;;;1.10;;
22388;SDS011;11362;48.102;11.620;2024-02-26T13:52:13;2.23;;;1.33;;
22388;SDS011;11362;48.102;11.620;2024-02-26T13:54:39;4.80;;;1.00;;
22388;SDS011;11362;48.102;11.620;2024-02-26T13:57:04;3.67;;;1.67;;
22388;SDS011;11362;48.102;11.620;2024-02-26T13:59:29;4.00;;;1.47;;
22388;SDS011;11362;48.102;11.620;2024-02-26T14:01:55;5.33;;;1.30;;
22388;SDS011;11362;48.102;11.620;2024-02-26T14:04:20;1.77;;;1.20;;
22388;SDS011;11362;48.102;11.620;2024-02-26T14:06:46;4.33;;;1.17;;
22388;SDS011;11362;48.102;11.620;2024-02-26T14:09:11;3.30;;;1.00;;
22388;SDS011;11362;48.102;11.620;2024-02-26T14:11:37;3.37;;;1.00;;
22388;SDS011;11362;48.102;11.620;2024-02-26T14:14:02;2.77;;;1.23;;
22388;SDS011;11362;48.102;11.620;2024-02-26T14:16:27;4.43;;;1.10;;
22388;SDS011;11362;48.102;11.620;2024-02-26T14:18:53;2.77;;;1.10;;
22388;SDS011;11362;48.102;11.620;2024-02-26T14:21:18;2.77;;;1.10;;
22388;SDS011;11362;48.102;11.620;2024-02-26T14:23:43;1.50;;;0.80;;
22388;SDS011;11362;48.102;11.620;2024-02-26T14:26:08;3.30;;;1.13;;
22388;SDS011;11362;48.102;11.620;2024-02-26T14:28:34;1.93;;;1.20;;
22388;SDS011;11362;48.102;11.620;2024-02-26T14:30:59;1.60;;;0.97;;
22388;SDS011;11362;48.102;11.620;2024-02-26T14:33:24;2.77;;;1.30;;
22388;SDS011;11362;48.102;11.620;2024-02-26T14:35:50;1.20;;;1.00;;